sensor_id;sensor_type;location;lat;lon;timestamp;P1;durP1;ratioP1;P2;durP2;ratioP2
72095;SDS011;59968;51.084;16.748;2023-06-10T00:01:30;11.50;;;6.50;;
72095;SDS011;59968;51.084;16.748;2023-06-10T00:03:58;14.40;;;6.80;;
72095;SDS011;59968;51.084;16.748;2023-06-10T00:06:26;13.10;;;7.30;;
72095;SDS011;59968;51.084;16.748;2023-06-10T00:08:56;13.20;;;7.10;;
72095;SDS011;59968;51.084;16.748;2023-06-10T00:11:25;12.10;;;7.60;;
72095;SDS011;59968;51.084;16.748;2023-06-10T00:14:05;10.50;;;6.10;;
72095;SDS011;59968;51.084;16.748;2023-06-10T00:16:35;9.30;;;6.10;;
72095;SDS011;59968;51.084;16.748;2023-06-10T00:19:11;12.40;;;6.20;;
72095;SDS011;59968;51.084;16.748;2023-06-10T00:21:43;10.20;;;6.30;;
72095;SDS011;59968;51.084;16.748;2023-06-10T00:24:16;10.00;;;6.30;;
72095;SDS011;59968;51.084;16.748;2023-06-10T00:26:44;8.80;;;5.60;;
72095;SDS011;59968;51.084;16.748;2023-06-10T00:29:12;8.10;;;5.80;;
72095;SDS011;59968;51.084;16.748;2023-06-10T00:31:43;10.20;;;5.80;;
72095;SDS011;59968;51.084;16.748;2023-06-10T00:34:13;11.30;;;6.30;;
72095;SDS011;59968;51.084;16.748;2023-06-10T00:36:41;12.20;;;6.50;;
72095;SDS011;59968;51.084;16.748;2023-06-10T00:39:11;11.10;;;6.50;;
72095;SDS011;59968;51.084;16.748;2023-06-10T00:41:39;10.50;;;6.60;;
72095;SDS011;59968;51.084;16.748;2023-06-10T00:44:07;11.60;;;6.30;;
72095;SDS011;59968;51.084;16.748;2023-06-10T00:46:36;11.20;;;6.70;;
72095;SDS011;59968;51.084;16.748;2023-06-10T00:49:05;13.40;;;6.70;;
72095;SDS011;59968;51.084;16.748;2023-06-10T00:51:34;11.90;;;6.40;;
72095;SDS011;59968;51.084;16.748;2023-06-10T00:54:04;11.00;;;6.80;;
72095;SDS011;59968;51.084;16.748;2023-06-10T00:56:33;14.00;;;7.70;;
72095;SDS011;59968;51.084;16.748;2023-06-10T00:59:03;12.80;;;7.10;;
72095;SDS011;59968;51.084;16.748;2023-06-10T01:01:31;12.80;;;7.30;;
72095;SDS011;59968;51.084;16.748;2023-06-10T01:04:02;13.90;;;8.10;;
72095;SDS011;59968;51.084;16.748;2023-06-10T01:06:41;10.10;;;7.60;;
72095;SDS011;59968;51.084;16.748;2023-06-10T01:09:25;11.30;;;7.20;;
72095;SDS011;59968;51.084;16.748;2023-06-10T01:12:07;12.40;;;7.50;;
72095;SDS011;59968;51.084;16.748;2023-06-10T01:15:00;10.40;;;7.10;;
72095;SDS011;59968;51.084;16.748;2023-06-10T01:17:29;15.00;;;7.80;;
72095;SDS011;59968;51.084;16.748;2023-06-10T01:19:58;13.40;;;7.40;;
72095;SDS011;59968;51.084;16.748;2023-06-10T01:22:28;15.90;;;7.80;;
72095;SDS011;59968;51.084;16.748;2023-06-10T01:25:00;15.40;;;8.10;;
72095;SDS011;59968;51.084;16.748;2023-06-10T01:27:32;14.30;;;7.40;;
72095;SDS011;59968;51.084;16.748;2023-06-10T01:30:10;14.90;;;7.40;;
72095;SDS011;59968;51.084;16.748;2023-06-10T01:32:50;13.20;;;7.50;;
72095;SDS011;59968;51.084;16.748;2023-06-10T01:35:20;12.70;;;6.80;;
72095;SDS011;59968;51.084;16.748;2023-06-10T01:37:53;14.10;;;6.30;;
72095;SDS011;59968;51.084;16.748;2023-06-10T01:40:25;15.30;;;6.10;;
72095;SDS011;59968;51.084;16.748;2023-06-10T01:42:54;16.70;;;6.30;;
72095;SDS011;59968;51.084;16.748;2023-06-10T01:45:23;16.70;;;6.30;;
72095;SDS011;59968;51.084;16.748;2023-06-10T01:47:51;21.60;;;6.10;;
72095;SDS011;59968;51.084;16.748;2023-06-10T01:50:20;17.80;;;5.90;;
72095;SDS011;59968;51.084;16.748;2023-06-10T01:52:48;20.60;;;7.00;;
72095;SDS011;59968;51.084;16.748;2023-06-10T01:55:17;15.80;;;6.60;;
72095;SDS011;59968;51.084;16.748;2023-06-10T01:57:45;18.00;;;6.70;;
72095;SDS011;59968;51.084;16.748;2023-06-10T02:00:14;17.40;;;6.50;;
72095;SDS011;59968;51.084;16.748;2023-06-10T02:02:45;15.30;;;6.40;;
72095;SDS011;59968;51.084;16.748;2023-06-10T02:05:13;15.60;;;6.40;;
72095;SDS011;59968;51.084;16.748;2023-06-10T02:07:42;13.40;;;6.20;;
72095;SDS011;59968;51.084;16.748;2023-06-10T02:10:11;14.70;;;7.10;;
72095;SDS011;59968;51.084;16.748;2023-06-10T02:12:39;14.10;;;6.40;;
72095;SDS011;59968;51.084;16.748;2023-06-10T02:15:08;19.40;;;7.20;;
72095;SDS011;59968;51.084;16.748;2023-06-10T02:17:36;22.90;;;7.40;;
72095;SDS011;59968;51.084;16.748;2023-06-10T02:20:05;17.60;;;8.10;;
72095;SDS011;59968;51.084;16.748;2023-06-10T02:22:35;16.70;;;7.40;;
72095;SDS011;59968;51.084;16.748;2023-06-10T02:25:03;16.00;;;7.40;;
72095;SDS011;59968;51.084;16.748;2023-06-10T02:27:34;19.40;;;7.70;;
72095;SDS011;59968;51.084;16.748;2023-06-10T02:30:03;17.60;;;7.70;;
72095;SDS011;59968;51.084;16.748;2023-06-10T02:32:32;20.00;;;7.80;;
72095;SDS011;59968;51.084;16.748;2023-06-10T02:35:01;17.40;;;7.40;;
72095;SDS011;59968;51.084;16.748;2023-06-10T02:37:31;20.10;;;7.80;;
72095;SDS011;59968;51.084;16.748;2023-06-10T02:39:59;18.70;;;7.60;;
72095;SDS011;59968;51.084;16.748;2023-06-10T02:42:27;20.40;;;8.30;;
72095;SDS011;59968;51.084;16.748;2023-06-10T02:44:57;15.60;;;8.00;;
72095;SDS011;59968;51.084;16.748;2023-06-10T02:47:38;16.30;;;8.60;;
72095;SDS011;59968;51.084;16.748;2023-06-10T02:50:08;20.70;;;8.60;;
72095;SDS011;59968;51.084;16.748;2023-06-10T02:52:43;20.40;;;8.90;;
72095;SDS011;59968;51.084;16.748;2023-06-10T02:55:12;16.50;;;8.80;;
72095;SDS011;59968;51.084;16.748;2023-06-10T02:57:44;18.70;;;8.60;;
72095;SDS011;59968;51.084;16.748;2023-06-10T03:00:13;16.60;;;8.50;;
72095;SDS011;59968;51.084;16.748;2023-06-10T03:02:43;15.20;;;7.90;;
72095;SDS011;59968;51.084;16.748;2023-06-10T03:05:14;16.40;;;8.40;;
72095;SDS011;59968;51.084;16.748;2023-06-10T03:07:44;16.90;;;8.60;;
72095;SDS011;59968;51.084;16.748;2023-06-10T03:10:15;19.20;;;8.60;;
72095;SDS011;59968;51.084;16.748;2023-06-10T03:12:44;20.20;;;9.60;;
72095;SDS011;59968;51.084;16.748;2023-06-10T03:15:13;16.20;;;8.50;;
72095;SDS011;59968;51.084;16.748;2023-06-10T03:17:42;16.00;;;9.10;;
72095;SDS011;59968;51.084;16.748;2023-06-10T03:20:11;19.30;;;9.30;;
72095;SDS011;59968;51.084;16.748;2023-06-10T03:22:44;17.70;;;8.90;;
72095;SDS011;59968;51.084;16.748;2023-06-10T03:25:13;19.40;;;10.20;;
72095;SDS011;59968;51.084;16.748;2023-06-10T03:27:47;19.00;;;9.50;;
72095;SDS011;59968;51.084;16.748;2023-06-10T03:30:15;19.30;;;10.20;;
72095;SDS011;59968;51.084;16.748;2023-06-10T03:32:45;17.80;;;10.00;;
72095;SDS011;59968;51.084;16.748;2023-06-10T03:35:15;15.80;;;9.40;;
72095;SDS011;59968;51.084;16.748;2023-06-10T03:37:45;21.40;;;10.00;;
72095;SDS011;59968;51.084;16.748;2023-06-10T03:40:14;21.20;;;10.30;;
72095;SDS011;59968;51.084;16.748;2023-06-10T03:42:45;20.20;;;10.20;;
72095;SDS011;59968;51.084;16.748;2023-06-10T03:45:15;17.30;;;10.50;;
72095;SDS011;59968;51.084;16.748;2023-06-10T03:47:46;18.80;;;10.70;;
72095;SDS011;59968;51.084;16.748;2023-06-10T03:50:18;17.50;;;10.00;;
72095;SDS011;59968;51.084;16.748;2023-06-10T03:52:47;21.50;;;11.60;;
72095;SDS011;59968;51.084;16.748;2023-06-10T03:55:17;18.90;;;10.50;;
72095;SDS011;59968;51.084;16.748;2023-06-10T03:57:45;16.30;;;10.30;;
72095;SDS011;59968;51.084;16.748;2023-06-10T04:00:14;19.10;;;11.20;;
72095;SDS011;59968;51.084;16.748;2023-06-10T04:02:44;21.20;;;11.00;;
72095;SDS011;59968;51.084;16.748;2023-06-10T04:05:24;17.90;;;10.20;;
72095;SDS011;59968;51.084;16.748;2023-06-10T04:07:53;17.90;;;10.50;;
72095;SDS011;59968;51.084;16.748;2023-06-10T04:10:21;18.40;;;10.80;;
72095;SDS011;59968;51.084;16.748;2023-06-10T04:12:50;18.00;;;9.90;;
72095;SDS011;59968;51.084;16.748;2023-06-10T04:15:18;17.70;;;10.30;;
72095;SDS011;59968;51.084;16.748;2023-06-10T04:17:47;17.00;;;9.90;;
72095;SDS011;59968;51.084;16.748;2023-06-10T04:20:18;16.60;;;9.70;;
72095;SDS011;59968;51.084;16.748;2023-06-10T04:22:47;16.60;;;10.40;;
72095;SDS011;59968;51.084;16.748;2023-06-10T04:25:17;17.00;;;10.40;;
72095;SDS011;59968;51.084;16.748;2023-06-10T04:27:48;17.80;;;10.00;;
72095;SDS011;59968;51.084;16.748;2023-06-10T04:30:17;18.40;;;10.10;;
72095;SDS011;59968;51.084;16.748;2023-06-10T04:32:47;15.40;;;9.70;;
72095;SDS011;59968;51.084;16.748;2023-06-10T04:35:16;19.70;;;10.00;;
72095;SDS011;59968;51.084;16.748;2023-06-10T04:37:45;17.20;;;10.10;;
72095;SDS011;59968;51.084;16.748;2023-06-10T04:40:14;16.90;;;9.90;;
72095;SDS011;59968;51.084;16.748;2023-06-10T04:42:44;15.80;;;9.90;;
72095;SDS011;59968;51.084;16.748;2023-06-10T04:45:13;15.70;;;9.80;;
72095;SDS011;59968;51.084;16.748;2023-06-10T04:47:43;17.40;;;10.20;;
72095;SDS011;59968;51.084;16.748;2023-06-10T04:50:12;15.90;;;10.70;;
72095;SDS011;59968;51.084;16.748;2023-06-10T04:52:41;16.50;;;10.10;;
72095;SDS011;59968;51.084;16.748;2023-06-10T04:55:13;17.50;;;9.90;;
72095;SDS011;59968;51.084;16.748;2023-06-10T04:57:41;16.50;;;9.70;;
72095;SDS011;59968;51.084;16.748;2023-06-10T05:00:11;15.00;;;9.90;;
72095;SDS011;59968;51.084;16.748;2023-06-10T05:02:40;19.80;;;10.10;;
72095;SDS011;59968;51.084;16.748;2023-06-10T05:05:09;15.10;;;9.40;;
72095;SDS011;59968;51.084;16.748;2023-06-10T05:07:38;16.20;;;9.60;;
72095;SDS011;59968;51.084;16.748;2023-06-10T05:10:06;17.60;;;9.70;;
72095;SDS011;59968;51.084;16.748;2023-06-10T05:12:36;16.20;;;9.70;;
72095;SDS011;59968;51.084;16.748;2023-06-10T05:15:06;19.70;;;10.10;;
72095;SDS011;59968;51.084;16.748;2023-06-10T05:17:36;15.30;;;9.40;;
72095;SDS011;59968;51.084;16.748;2023-06-10T05:20:05;14.30;;;10.20;;
72095;SDS011;59968;51.084;16.748;2023-06-10T05:22:34;15.20;;;10.20;;
72095;SDS011;59968;51.084;16.748;2023-06-10T05:25:02;16.40;;;10.70;;
72095;SDS011;59968;51.084;16.748;2023-06-10T05:27:31;15.20;;;10.10;;
72095;SDS011;59968;51.084;16.748;2023-06-10T05:29:59;14.30;;;10.40;;
72095;SDS011;59968;51.084;16.748;2023-06-10T05:32:29;16.90;;;10.70;;
72095;SDS011;59968;51.084;16.748;2023-06-10T05:34:57;16.00;;;11.20;;
72095;SDS011;59968;51.084;16.748;2023-06-10T05:37:25;15.10;;;11.20;;
72095;SDS011;59968;51.084;16.748;2023-06-10T05:39:54;17.60;;;11.60;;
72095;SDS011;59968;51.084;16.748;2023-06-10T05:42:22;15.50;;;10.40;;
72095;SDS011;59968;51.084;16.748;2023-06-10T05:44:51;16.20;;;11.00;;
72095;SDS011;59968;51.084;16.748;2023-06-10T05:47:20;12.30;;;9.00;;
72095;SDS011;59968;51.084;16.748;2023-06-10T05:49:50;16.50;;;11.50;;
72095;SDS011;59968;51.084;16.748;2023-06-10T05:52:23;15.10;;;10.90;;
72095;SDS011;59968;51.084;16.748;2023-06-10T05:54:51;15.30;;;11.10;;
72095;SDS011;59968;51.084;16.748;2023-06-10T05:57:20;16.00;;;11.90;;
72095;SDS011;59968;51.084;16.748;2023-06-10T05:59:48;16.20;;;11.60;;
72095;SDS011;59968;51.084;16.748;2023-06-10T06:02:16;14.50;;;11.70;;
72095;SDS011;59968;51.084;16.748;2023-06-10T06:04:45;18.80;;;12.80;;
72095;SDS011;59968;51.084;16.748;2023-06-10T06:07:13;14.90;;;11.00;;
72095;SDS011;59968;51.084;16.748;2023-06-10T06:09:42;17.10;;;11.90;;
72095;SDS011;59968;51.084;16.748;2023-06-10T06:12:11;16.50;;;12.10;;
72095;SDS011;59968;51.084;16.748;2023-06-10T06:14:39;16.10;;;11.80;;
72095;SDS011;59968;51.084;16.748;2023-06-10T06:17:08;16.30;;;12.10;;
72095;SDS011;59968;51.084;16.748;2023-06-10T06:19:36;16.20;;;12.50;;
72095;SDS011;59968;51.084;16.748;2023-06-10T06:22:05;15.10;;;10.80;;
72095;SDS011;59968;51.084;16.748;2023-06-10T06:24:34;18.30;;;12.30;;
72095;SDS011;59968;51.084;16.748;2023-06-10T06:27:03;17.70;;;13.40;;
72095;SDS011;59968;51.084;16.748;2023-06-10T06:29:31;15.50;;;12.60;;
72095;SDS011;59968;51.084;16.748;2023-06-10T06:32:00;17.00;;;12.70;;
72095;SDS011;59968;51.084;16.748;2023-06-10T06:34:29;15.70;;;12.20;;
72095;SDS011;59968;51.084;16.748;2023-06-10T06:36:58;16.50;;;11.80;;
72095;SDS011;59968;51.084;16.748;2023-06-10T06:39:28;15.70;;;11.80;;
72095;SDS011;59968;51.084;16.748;2023-06-10T06:41:57;18.90;;;13.30;;
72095;SDS011;59968;51.084;16.748;2023-06-10T06:44:42;15.20;;;12.20;;
72095;SDS011;59968;51.084;16.748;2023-06-10T06:47:12;16.60;;;12.90;;
72095;SDS011;59968;51.084;16.748;2023-06-10T06:49:41;15.70;;;12.70;;
72095;SDS011;59968;51.084;16.748;2023-06-10T06:52:10;14.70;;;12.10;;
72095;SDS011;59968;51.084;16.748;2023-06-10T06:54:39;15.90;;;12.50;;
72095;SDS011;59968;51.084;16.748;2023-06-10T06:57:08;13.70;;;12.00;;
72095;SDS011;59968;51.084;16.748;2023-06-10T06:59:37;16.80;;;12.10;;
72095;SDS011;59968;51.084;16.748;2023-06-10T07:02:07;15.50;;;12.70;;
72095;SDS011;59968;51.084;16.748;2023-06-10T07:04:37;16.10;;;13.40;;
72095;SDS011;59968;51.084;16.748;2023-06-10T07:07:12;15.70;;;13.40;;
72095;SDS011;59968;51.084;16.748;2023-06-10T07:09:41;16.00;;;12.50;;
72095;SDS011;59968;51.084;16.748;2023-06-10T07:12:10;15.00;;;12.10;;
72095;SDS011;59968;51.084;16.748;2023-06-10T07:14:39;16.40;;;12.70;;
72095;SDS011;59968;51.084;16.748;2023-06-10T07:17:09;15.60;;;13.20;;
72095;SDS011;59968;51.084;16.748;2023-06-10T07:19:38;14.10;;;12.10;;
72095;SDS011;59968;51.084;16.748;2023-06-10T07:22:11;14.70;;;12.80;;
72095;SDS011;59968;51.084;16.748;2023-06-10T07:24:45;14.60;;;12.50;;
72095;SDS011;59968;51.084;16.748;2023-06-10T07:27:17;19.40;;;13.30;;
72095;SDS011;59968;51.084;16.748;2023-06-10T07:29:46;17.40;;;12.60;;
72095;SDS011;59968;51.084;16.748;2023-06-10T07:32:22;15.00;;;12.60;;
72095;SDS011;59968;51.084;16.748;2023-06-10T07:34:52;17.00;;;12.50;;
72095;SDS011;59968;51.084;16.748;2023-06-10T07:37:26;16.20;;;12.50;;
72095;SDS011;59968;51.084;16.748;2023-06-10T07:39:58;14.00;;;12.00;;
72095;SDS011;59968;51.084;16.748;2023-06-10T07:42:28;15.70;;;12.10;;
72095;SDS011;59968;51.084;16.748;2023-06-10T07:44:56;13.80;;;11.70;;
72095;SDS011;59968;51.084;16.748;2023-06-10T07:47:26;14.60;;;12.60;;
72095;SDS011;59968;51.084;16.748;2023-06-10T07:49:54;14.80;;;11.60;;
72095;SDS011;59968;51.084;16.748;2023-06-10T07:52:23;13.00;;;10.90;;
72095;SDS011;59968;51.084;16.748;2023-06-10T07:54:53;14.10;;;10.10;;
72095;SDS011;59968;51.084;16.748;2023-06-10T07:57:21;12.70;;;11.10;;
72095;SDS011;59968;51.084;16.748;2023-06-10T07:59:50;15.20;;;11.90;;
72095;SDS011;59968;51.084;16.748;2023-06-10T08:02:19;16.20;;;12.50;;
72095;SDS011;59968;51.084;16.748;2023-06-10T08:04:51;14.70;;;11.20;;
72095;SDS011;59968;51.084;16.748;2023-06-10T08:07:24;12.50;;;10.80;;
72095;SDS011;59968;51.084;16.748;2023-06-10T08:09:56;13.40;;;11.60;;
72095;SDS011;59968;51.084;16.748;2023-06-10T08:12:25;11.60;;;10.00;;
72095;SDS011;59968;51.084;16.748;2023-06-10T08:14:53;12.80;;;10.20;;
72095;SDS011;59968;51.084;16.748;2023-06-10T08:17:23;11.00;;;9.60;;
72095;SDS011;59968;51.084;16.748;2023-06-10T08:19:52;12.20;;;10.10;;
72095;SDS011;59968;51.084;16.748;2023-06-10T08:22:22;12.80;;;10.00;;
72095;SDS011;59968;51.084;16.748;2023-06-10T08:24:51;12.30;;;9.70;;
72095;SDS011;59968;51.084;16.748;2023-06-10T08:27:21;11.90;;;10.00;;
72095;SDS011;59968;51.084;16.748;2023-06-10T08:29:50;12.10;;;9.60;;
72095;SDS011;59968;51.084;16.748;2023-06-10T08:32:20;13.00;;;9.40;;
72095;SDS011;59968;51.084;16.748;2023-06-10T08:34:50;12.20;;;10.90;;
72095;SDS011;59968;51.084;16.748;2023-06-10T08:37:20;10.80;;;8.60;;
72095;SDS011;59968;51.084;16.748;2023-06-10T08:39:51;11.00;;;9.00;;
72095;SDS011;59968;51.084;16.748;2023-06-10T08:45:07;10.40;;;8.80;;
72095;SDS011;59968;51.084;16.748;2023-06-10T08:47:42;11.10;;;8.90;;
72095;SDS011;59968;51.084;16.748;2023-06-10T08:50:19;9.30;;;6.60;;
72095;SDS011;59968;51.084;16.748;2023-06-10T08:52:50;9.00;;;7.30;;
72095;SDS011;59968;51.084;16.748;2023-06-10T08:55:33;8.00;;;7.10;;
72095;SDS011;59968;51.084;16.748;2023-06-10T08:58:16;9.20;;;7.60;;
72095;SDS011;59968;51.084;16.748;2023-06-10T09:00:45;8.00;;;6.90;;
72095;SDS011;59968;51.084;16.748;2023-06-10T09:03:17;8.60;;;6.70;;
72095;SDS011;59968;51.084;16.748;2023-06-10T09:05:49;10.20;;;7.70;;
72095;SDS011;59968;51.084;16.748;2023-06-10T09:08:19;9.70;;;7.30;;
72095;SDS011;59968;51.084;16.748;2023-06-10T09:10:48;7.50;;;5.90;;
72095;SDS011;59968;51.084;16.748;2023-06-10T09:13:18;8.80;;;6.90;;
72095;SDS011;59968;51.084;16.748;2023-06-10T09:15:48;7.60;;;6.70;;
72095;SDS011;59968;51.084;16.748;2023-06-10T09:18:17;7.10;;;5.90;;
72095;SDS011;59968;51.084;16.748;2023-06-10T09:20:48;7.30;;;6.10;;
72095;SDS011;59968;51.084;16.748;2023-06-10T09:23:17;7.50;;;6.00;;
72095;SDS011;59968;51.084;16.748;2023-06-10T09:25:53;11.10;;;6.40;;
72095;SDS011;59968;51.084;16.748;2023-06-10T09:28:25;8.90;;;7.20;;
72095;SDS011;59968;51.084;16.748;2023-06-10T09:31:03;9.20;;;6.70;;
72095;SDS011;59968;51.084;16.748;2023-06-10T09:33:39;8.50;;;7.10;;
72095;SDS011;59968;51.084;16.748;2023-06-10T09:36:08;8.60;;;6.90;;
72095;SDS011;59968;51.084;16.748;2023-06-10T09:38:37;7.70;;;6.80;;
72095;SDS011;59968;51.084;16.748;2023-06-10T09:41:07;8.60;;;6.90;;
72095;SDS011;59968;51.084;16.748;2023-06-10T09:43:43;8.60;;;7.60;;
72095;SDS011;59968;51.084;16.748;2023-06-10T09:46:15;9.20;;;7.30;;
72095;SDS011;59968;51.084;16.748;2023-06-10T09:48:45;10.80;;;8.40;;
72095;SDS011;59968;51.084;16.748;2023-06-10T09:51:15;9.50;;;8.50;;
72095;SDS011;59968;51.084;16.748;2023-06-10T09:53:47;8.70;;;7.80;;
72095;SDS011;59968;51.084;16.748;2023-06-10T09:56:20;8.70;;;6.60;;
72095;SDS011;59968;51.084;16.748;2023-06-10T09:58:49;10.30;;;7.60;;
72095;SDS011;59968;51.084;16.748;2023-06-10T10:01:21;8.00;;;6.40;;
72095;SDS011;59968;51.084;16.748;2023-06-10T10:03:50;11.50;;;9.40;;
72095;SDS011;59968;51.084;16.748;2023-06-10T10:06:20;12.60;;;11.30;;
72095;SDS011;59968;51.084;16.748;2023-06-10T10:08:49;12.10;;;10.20;;
72095;SDS011;59968;51.084;16.748;2023-06-10T10:11:20;13.60;;;11.20;;
72095;SDS011;59968;51.084;16.748;2023-06-10T10:13:51;12.40;;;10.60;;
72095;SDS011;59968;51.084;16.748;2023-06-10T10:16:23;13.20;;;11.80;;
72095;SDS011;59968;51.084;16.748;2023-06-10T10:19:00;13.50;;;11.90;;
72095;SDS011;59968;51.084;16.748;2023-06-10T10:21:37;12.70;;;11.20;;
72095;SDS011;59968;51.084;16.748;2023-06-10T10:24:14;15.20;;;12.00;;
72095;SDS011;59968;51.084;16.748;2023-06-10T10:26:47;13.80;;;11.80;;
72095;SDS011;59968;51.084;16.748;2023-06-10T10:29:20;12.80;;;11.20;;
72095;SDS011;59968;51.084;16.748;2023-06-10T10:31:59;12.00;;;10.80;;
72095;SDS011;59968;51.084;16.748;2023-06-10T10:34:53;14.60;;;11.80;;
72095;SDS011;59968;51.084;16.748;2023-06-10T10:37:22;12.40;;;10.80;;
72095;SDS011;59968;51.084;16.748;2023-06-10T10:39:51;13.20;;;11.80;;
72095;SDS011;59968;51.084;16.748;2023-06-10T10:42:20;11.00;;;9.40;;
72095;SDS011;59968;51.084;16.748;2023-06-10T10:44:53;11.10;;;10.00;;
72095;SDS011;59968;51.084;16.748;2023-06-10T10:47:35;12.20;;;9.60;;
72095;SDS011;59968;51.084;16.748;2023-06-10T10:50:13;10.40;;;9.30;;
72095;SDS011;59968;51.084;16.748;2023-06-10T10:52:59;11.40;;;9.10;;
72095;SDS011;59968;51.084;16.748;2023-06-10T10:55:44;10.00;;;8.80;;
72095;SDS011;59968;51.084;16.748;2023-06-10T10:58:43;11.00;;;9.90;;
72095;SDS011;59968;51.084;16.748;2023-06-10T11:01:41;9.70;;;8.30;;
72095;SDS011;59968;51.084;16.748;2023-06-10T11:04:21;11.20;;;8.50;;
72095;SDS011;59968;51.084;16.748;2023-06-10T11:06:53;9.50;;;8.50;;
72095;SDS011;59968;51.084;16.748;2023-06-10T11:09:27;9.20;;;7.70;;
72095;SDS011;59968;51.084;16.748;2023-06-10T11:12:03;10.80;;;7.40;;
72095;SDS011;59968;51.084;16.748;2023-06-10T11:14:34;11.60;;;7.30;;
72095;SDS011;59968;51.084;16.748;2023-06-10T11:17:03;8.60;;;7.70;;
72095;SDS011;59968;51.084;16.748;2023-06-10T11:19:48;8.30;;;7.40;;
72095;SDS011;59968;51.084;16.748;2023-06-10T11:22:17;8.50;;;7.20;;
72095;SDS011;59968;51.084;16.748;2023-06-10T11:24:47;7.80;;;6.90;;
72095;SDS011;59968;51.084;16.748;2023-06-10T11:27:22;8.50;;;7.50;;
72095;SDS011;59968;51.084;16.748;2023-06-10T11:29:57;9.10;;;6.70;;
72095;SDS011;59968;51.084;16.748;2023-06-10T11:32:46;8.90;;;5.90;;
72095;SDS011;59968;51.084;16.748;2023-06-10T11:35:23;6.90;;;5.60;;
72095;SDS011;59968;51.084;16.748;2023-06-10T11:37:53;8.60;;;6.10;;
72095;SDS011;59968;51.084;16.748;2023-06-10T11:40:37;7.30;;;5.70;;
72095;SDS011;59968;51.084;16.748;2023-06-10T11:43:09;8.00;;;6.20;;
72095;SDS011;59968;51.084;16.748;2023-06-10T11:45:42;6.90;;;5.00;;
72095;SDS011;59968;51.084;16.748;2023-06-10T11:48:16;6.50;;;5.60;;
72095;SDS011;59968;51.084;16.748;2023-06-10T11:50:56;6.90;;;4.80;;
72095;SDS011;59968;51.084;16.748;2023-06-10T11:53:26;8.20;;;6.00;;
72095;SDS011;59968;51.084;16.748;2023-06-10T11:56:05;6.40;;;5.30;;
72095;SDS011;59968;51.084;16.748;2023-06-10T11:58:35;7.20;;;5.80;;
72095;SDS011;59968;51.084;16.748;2023-06-10T12:01:05;8.00;;;5.00;;
72095;SDS011;59968;51.084;16.748;2023-06-10T12:03:38;6.90;;;5.50;;
72095;SDS011;59968;51.084;16.748;2023-06-10T12:06:12;7.70;;;5.50;;
72095;SDS011;59968;51.084;16.748;2023-06-10T12:08:42;7.00;;;5.60;;
72095;SDS011;59968;51.084;16.748;2023-06-10T12:11:16;6.90;;;5.50;;
72095;SDS011;59968;51.084;16.748;2023-06-10T12:13:48;9.20;;;5.60;;
72095;SDS011;59968;51.084;16.748;2023-06-10T12:16:27;8.20;;;5.80;;
72095;SDS011;59968;51.084;16.748;2023-06-10T12:19:01;7.50;;;5.50;;
72095;SDS011;59968;51.084;16.748;2023-06-10T12:21:36;8.60;;;4.60;;
72095;SDS011;59968;51.084;16.748;2023-06-10T12:24:12;7.80;;;5.40;;
72095;SDS011;59968;51.084;16.748;2023-06-10T12:26:48;6.30;;;5.50;;
72095;SDS011;59968;51.084;16.748;2023-06-10T12:29:20;8.60;;;5.90;;
72095;SDS011;59968;51.084;16.748;2023-06-10T12:31:55;9.40;;;5.60;;
72095;SDS011;59968;51.084;16.748;2023-06-10T12:34:35;7.80;;;5.70;;
72095;SDS011;59968;51.084;16.748;2023-06-10T12:37:11;7.00;;;5.10;;
72095;SDS011;59968;51.084;16.748;2023-06-10T12:39:58;7.80;;;5.50;;
72095;SDS011;59968;51.084;16.748;2023-06-10T12:42:31;6.90;;;5.10;;
72095;SDS011;59968;51.084;16.748;2023-06-10T12:45:07;8.60;;;5.50;;
72095;SDS011;59968;51.084;16.748;2023-06-10T12:47:39;6.70;;;5.50;;
72095;SDS011;59968;51.084;16.748;2023-06-10T12:50:08;7.60;;;5.40;;
72095;SDS011;59968;51.084;16.748;2023-06-10T12:52:37;9.40;;;5.40;;
72095;SDS011;59968;51.084;16.748;2023-06-10T12:55:06;6.30;;;5.20;;
72095;SDS011;59968;51.084;16.748;2023-06-10T12:57:35;8.10;;;5.30;;
72095;SDS011;59968;51.084;16.748;2023-06-10T13:00:04;7.90;;;5.00;;
72095;SDS011;59968;51.084;16.748;2023-06-10T13:02:38;8.00;;;7.10;;
72095;SDS011;59968;51.084;16.748;2023-06-10T13:05:14;9.30;;;8.30;;
72095;SDS011;59968;51.084;16.748;2023-06-10T13:07:44;10.60;;;8.00;;
72095;SDS011;59968;51.084;16.748;2023-06-10T13:10:14;8.00;;;6.90;;
72095;SDS011;59968;51.084;16.748;2023-06-10T13:12:56;11.00;;;6.40;;
72095;SDS011;59968;51.084;16.748;2023-06-10T13:15:32;10.60;;;7.00;;
72095;SDS011;59968;51.084;16.748;2023-06-10T13:18:11;8.60;;;6.60;;
72095;SDS011;59968;51.084;16.748;2023-06-10T13:20:44;6.80;;;5.50;;
72095;SDS011;59968;51.084;16.748;2023-06-10T13:23:20;7.40;;;5.20;;
72095;SDS011;59968;51.084;16.748;2023-06-10T13:25:59;6.90;;;5.20;;
72095;SDS011;59968;51.084;16.748;2023-06-10T13:28:31;8.10;;;4.80;;
72095;SDS011;59968;51.084;16.748;2023-06-10T13:31:10;7.80;;;5.20;;
72095;SDS011;59968;51.084;16.748;2023-06-10T13:33:40;6.80;;;4.50;;
72095;SDS011;59968;51.084;16.748;2023-06-10T13:36:18;7.40;;;4.70;;
72095;SDS011;59968;51.084;16.748;2023-06-10T13:38:48;5.80;;;4.40;;
72095;SDS011;59968;51.084;16.748;2023-06-10T13:41:17;7.20;;;5.30;;
72095;SDS011;59968;51.084;16.748;2023-06-10T13:43:46;6.40;;;4.90;;
72095;SDS011;59968;51.084;16.748;2023-06-10T13:46:15;6.10;;;4.30;;
72095;SDS011;59968;51.084;16.748;2023-06-10T13:48:44;5.00;;;4.20;;
72095;SDS011;59968;51.084;16.748;2023-06-10T13:51:15;6.40;;;4.30;;
72095;SDS011;59968;51.084;16.748;2023-06-10T13:53:43;6.80;;;4.60;;
72095;SDS011;59968;51.084;16.748;2023-06-10T13:56:13;7.20;;;4.50;;
72095;SDS011;59968;51.084;16.748;2023-06-10T13:58:42;6.80;;;4.50;;
72095;SDS011;59968;51.084;16.748;2023-06-10T14:01:17;5.50;;;4.50;;
72095;SDS011;59968;51.084;16.748;2023-06-10T14:03:47;6.50;;;4.30;;
72095;SDS011;59968;51.084;16.748;2023-06-10T14:06:18;7.30;;;4.30;;
72095;SDS011;59968;51.084;16.748;2023-06-10T14:08:46;6.10;;;4.30;;
72095;SDS011;59968;51.084;16.748;2023-06-10T14:11:15;6.00;;;4.20;;
72095;SDS011;59968;51.084;16.748;2023-06-10T14:13:45;5.80;;;4.10;;
72095;SDS011;59968;51.084;16.748;2023-06-10T14:16:13;5.10;;;4.10;;
72095;SDS011;59968;51.084;16.748;2023-06-10T14:18:42;5.70;;;4.10;;
72095;SDS011;59968;51.084;16.748;2023-06-10T14:21:11;6.50;;;4.30;;
72095;SDS011;59968;51.084;16.748;2023-06-10T14:23:44;4.20;;;3.10;;
72095;SDS011;59968;51.084;16.748;2023-06-10T14:26:14;7.60;;;4.40;;
72095;SDS011;59968;51.084;16.748;2023-06-10T14:28:42;8.00;;;3.90;;
72095;SDS011;59968;51.084;16.748;2023-06-10T14:31:11;6.50;;;3.80;;
72095;SDS011;59968;51.084;16.748;2023-06-10T14:33:40;6.60;;;4.30;;
72095;SDS011;59968;51.084;16.748;2023-06-10T14:36:10;5.70;;;4.20;;
72095;SDS011;59968;51.084;16.748;2023-06-10T14:38:42;6.20;;;3.70;;
72095;SDS011;59968;51.084;16.748;2023-06-10T14:41:10;5.30;;;3.70;;
72095;SDS011;59968;51.084;16.748;2023-06-10T14:43:39;5.60;;;3.50;;
72095;SDS011;59968;51.084;16.748;2023-06-10T14:46:07;7.00;;;3.90;;
72095;SDS011;59968;51.084;16.748;2023-06-10T14:48:36;6.40;;;3.20;;